Wolf Point, MT

9:42 PM MST on February 19, 2017 (GMT -0700)
On Wolf Creek West of Wolf Point, Montana | | Change Station
Active Advisory: Dense Fog Advisory

Elev 2001 ft 48.08 °N, 105.68 °W | Updated 34 seconds ago

Fog
Fog
31.1 °F
Feels Like 25 °F
N
6.3
Wind Variable Wind from SW

Today
High -- | Low -- °F
--% Chance of Precip.
Yesterday
High -- | Low -- °F
Precip. -- in
Pressure 29.64 in
Visibility 0.2 miles
Clouds
Windchill 25 °F
Dew Point 31 °F
Humidity 99%
Rainfall 0.00 in
Snow Depth Not available.
7:01 AM 5:31 PM
Last Quarter, 37% visible
METAR KOLF 200353Z AUTO 26004KT 1/4SM FG VV002 01/00 A2958 RMK AO2 SLP036 T00110000
Pressure 29.64 in
Visibility 0.2 miles
Clouds
Windchill 25 °F
Dew Point 31 °F
Humidity 99%
Rainfall 0.00 in
Snow Depth Not available.
7:01 AM 5:31 PM
Last Quarter, 37% visible
METAR KOLF 200353Z AUTO 26004KT 1/4SM FG VV002 01/00 A2958 RMK AO2 SLP036 T00110000

Get Your Daily Forecast Email!

Thanks for signing up!

Be on the lookout for a verification email in your inbox.

You'll start receiving the daily forecast at 8 AM.

×

10-Day Weather Forecast

Almanac

Astronomy

Feb. 19, 2017 Rise Set
Actual Time
Civil Twilight
Nautical Twilight
Astronomical Twilight
Moon
Length of Visible Light
Length of Day
Tomorrow will be .
, % of the Moon is Illuminated

Today's Extremes

State Highs State Lows

Community

WunderPhotos

Upload Photos

1,962,540 photos uploaded!

WunderBlog® & News

Nearby

Air Quality

  Air Quality AQ Index Pollutant
Not available.

Snow Depth

Station Depth Elevation

Earthquake Activity

City Distance Mag. Time & Date
Minimum magnitude displayed is 2.5.

Coastal Water Temperatures

Place Temperature

Stations

Nearby Weather Stations

Station Location Temp. Windchill Dew Point Humidity Wind Precip. Elev Updated Type
                   

Watches & Warnings

Dense Fog Advisory
Issued: 5:47 PM MST Feb. 19, 2017 – National Weather Service

... Dense fog advisory in effect until 8 am MST Monday...

The National Weather Service in Glasgow has issued a dense fog
advisory... which is in effect until 8 am MST Monday.

* Timing... through 8 am MST Monday.

* Impacts... limited visibilities will make travel very difficult.

Precautionary/preparedness actions...

A dense fog advisory means visibilities will frequently be
reduced to less than one quarter mile. If driving, slow down, use
your headlights, and leave plenty of distance ahead of you.